Time;durP1;ratioP1;P1;durP2;ratioP2;P2;SDS_P1;SDS_P2;PMS_P1;PMS_P2;Temp;Humidity;BMP_temperature;BMP_pressure;BME280_temperature;BME280_humidity;BME280_pressure;Samples;Min_cycle;Max_cycle;Signal;HPM_P1;HPM_P2
2023/11/02 17:21:49;;;;;;;;;;;;;;;;;;1047786;28;20415;-72
2023/11/02 17:22:20;;;;;;;6.50;2.05;;;;;;;;;;1047249;28;20423;-72
2023/11/02 17:22:51;;;;;;;9.57;3.28;;;;;;;;;;1047307;28;20024;-72
2023/11/02 17:23:21;;;;;;;4.38;3.35;;;;;;;;;;1047136;28;20017;-72
2023/11/02 17:23:53;;;;;;;4.35;3.90;;;;;;;;;;1047461;28;20037;-72
2023/11/02 17:24:24;;;;;;;9.27;3.72;;;;;;;;;;1047291;28;20025;-72
2023/11/02 17:24:55;;;;;;;5.03;2.90;;;;;;;;;;1047400;28;20070;-72
2023/11/02 17:25:26;;;;;;;7.90;4.50;;;;;;;;;;1047038;28;20020;-72
2023/11/02 17:25:57;;;;;;;8.57;5.65;;;;;;;;;;1047406;28;20472;-72
2023/11/02 17:26:27;;;;;;;3.80;3.17;;;;;;;;;;1047213;28;20380;-72
2023/11/02 17:26:58;;;;;;;11.90;3.78;;;;;;;;;;1046992;28;20032;-73
2023/11/02 17:27:28;;;;;;;9.23;4.57;;;;;;;;;;1046558;28;20078;-73
2023/11/02 17:28:00;;;;;;;10.20;4.15;;;;;;;;;;1045180;28;20390;-73
2023/11/02 17:28:30;;;;;;;2.28;2.15;;;;;;;;;;1044804;28;20481;-73
2023/11/02 17:29:02;;;;;;;8.65;5.25;;;;;;;;;;1044461;28;20052;-73
2023/11/02 17:29:33;;;;;;;6.43;3.20;;;;;;;;;;1039791;28;20068;-73
2023/11/02 17:30:04;;;;;;;3.08;2.45;;;;;;;;;;1041169;28;20128;-73
2023/11/02 17:30:35;;;;;;;8.23;3.80;;;;;;;;;;1043133;28;20033;-73
2023/11/02 17:31:08;;;;;;;8.63;6.07;;;;;;;;;;1046926;28;20024;-73
2023/11/02 17:31:39;;;;;;;3.38;3.08;;;;;;;;;;1047295;28;20073;-73
2023/11/02 17:32:11;;;;;;;5.75;3.88;;;;;;;;;;1047389;28;20074;-73
2023/11/02 17:32:42;;;;;;;13.05;3.88;;;;;;;;;;1047200;28;20104;-73
2023/11/02 17:33:13;;;;;;;22.00;6.72;;;;;;;;;;1047264;28;20020;-73
2023/11/02 17:33:43;;;;;;;28.95;5.93;;;;;;;;;;1047308;28;20511;-73
2023/11/02 17:34:15;;;;;;;5.63;4.03;;;;;;;;;;1047172;28;20107;-73
2023/11/02 17:34:45;;;;;;;7.65;5.00;;;;;;;;;;1046800;28;20013;-73
2023/11/02 17:35:16;;;;;;;10.40;4.93;;;;;;;;;;1046843;28;20017;-73
2023/11/02 17:35:46;;;;;;;5.95;5.15;;;;;;;;;;1046968;28;20040;-73
2023/11/02 17:36:17;;;;;;;15.05;5.53;;;;;;;;;;1046891;28;20025;-73
2023/11/02 17:36:47;;;;;;;15.60;8.95;;;;;;;;;;1046869;28;20021;-73
2023/11/02 17:37:18;;;;;;;6.63;4.10;;;;;;;;;;1046844;28;20167;-73
2023/11/02 17:37:48;;;;;;;9.57;6.38;;;;;;;;;;1047094;28;20130;-73
2023/11/02 17:38:19;;;;;;;5.30;3.40;;;;;;;;;;1046930;28;20081;-73
2023/11/02 17:38:50;;;;;;;22.13;8.50;;;;;;;;;;1047313;28;20120;-73
2023/11/02 17:39:20;;;;;;;10.40;6.38;;;;;;;;;;1047086;28;20028;-73
2023/11/02 17:39:51;;;;;;;11.63;6.43;;;;;;;;;;1047381;28;20025;-73
2023/11/02 17:40:22;;;;;;;10.10;5.15;;;;;;;;;;1047315;28;20024;-73
2023/11/02 17:40:53;;;;;;;12.00;7.32;;;;;;;;;;1047185;28;20459;-73
2023/11/02 17:41:23;;;;;;;5.60;5.20;;;;;;;;;;1046448;28;20099;-73
2023/11/02 17:41:54;;;;;;;3.75;3.28;;;;;;;;;;1046871;28;20399;-73
2023/11/02 17:42:24;;;;;;;7.03;6.22;;;;;;;;;;1046443;28;20060;-73
2023/11/02 17:42:56;;;;;;;22.13;4.25;;;;;;;;;;1046427;28;20477;-73
2023/11/02 17:43:27;;;;;;;12.48;5.95;;;;;;;;;;1046254;28;20029;-73
2023/11/02 17:43:58;;;;;;;3.83;3.00;;;;;;;;;;1047024;28;20112;-73
2023/11/02 17:44:29;;;;;;;14.80;5.47;;;;;;;;;;1046880;28;20032;-73
2023/11/02 17:44:59;;;;;;;6.97;3.85;;;;;;;;;;1046735;28;20048;-73
2023/11/02 17:45:32;;;;;;;4.47;4.00;;;;;;;;;;1046375;28;20059;-73
2023/11/02 17:46:03;;;;;;;15.02;7.85;;;;;;;;;;1046044;28;20025;-73
2023/11/02 17:46:34;;;;;;;9.30;7.88;;;;;;;;;;1046881;28;20559;-73
2023/11/02 17:47:04;;;;;;;1.98;1.88;;;;;;;;;;1047257;28;20028;-73
2023/11/02 17:47:39;;;;;;;7.45;4.15;;;;;;;;;;1047089;28;20032;-73
2023/11/02 17:48:10;;;;;;;23.77;4.03;;;;;;;;;;1047317;28;20479;-73
2023/11/02 17:48:41;;;;;;;5.50;4.93;;;;;;;;;;1046128;28;20373;-73
2023/11/02 17:49:12;;;;;;;5.53;4.47;;;;;;;;;;1046629;28;20116;-73
2023/11/02 17:49:42;;;;;;;18.60;4.10;;;;;;;;;;1046857;28;20066;-73
2023/11/02 17:50:13;;;;;;;7.85;3.72;;;;;;;;;;1047030;28;20036;-73
2023/11/02 17:50:44;;;;;;;6.25;3.08;;;;;;;;;;1047212;28;20039;-73
2023/11/02 17:51:14;;;;;;;9.48;5.38;;;;;;;;;;1046669;28;20027;-73
2023/11/02 17:51:45;;;;;;;6.40;5.90;;;;;;;;;;1046519;28;20067;-73
2023/11/02 17:52:16;;;;;;;6.00;4.28;;;;;;;;;;1046939;28;20029;-73
2023/11/02 17:52:47;;;;;;;9.63;4.13;;;;;;;;;;1046983;28;20452;-73
2023/11/02 17:53:18;;;;;;;8.50;6.40;;;;;;;;;;1046051;28;20031;-73
2023/11/02 17:53:48;;;;;;;15.25;6.45;;;;;;;;;;1047389;28;20032;-73
2023/11/02 17:54:19;;;;;;;9.07;6.95;;;;;;;;;;1046797;28;20021;-73
2023/11/02 17:54:50;;;;;;;3.75;3.40;;;;;;;;;;1046980;28;20029;-73
2023/11/02 17:55:20;;;;;;;7.65;6.88;;;;;;;;;;1046751;28;20027;-73
2023/11/02 17:55:52;;;;;;;16.15;6.28;;;;;;;;;;1046946;28;20008;-73
2023/11/02 17:56:22;;;;;;;16.33;8.93;;;;;;;;;;1047238;28;20477;-73
2023/11/02 17:56:53;;;;;;;8.10;3.83;;;;;;;;;;1046961;28;20451;-73
2023/11/02 17:57:24;;;;;;;6.25;4.80;;;;;;;;;;1046546;28;20021;-73
2023/11/02 17:57:56;;;;;;;23.33;7.53;;;;;;;;;;1044859;28;20035;-73
2023/11/02 17:58:26;;;;;;;12.07;7.38;;;;;;;;;;1044093;28;20033;-73
2023/11/02 17:58:57;;;;;;;19.23;8.52;;;;;;;;;;1047020;28;20409;-73
2023/11/02 17:59:28;;;;;;;9.57;3.70;;;;;;;;;;1044695;28;20124;-73
2023/11/02 17:59:58;;;;;;;19.42;7.50;;;;;;;;;;1043594;28;20449;-73
2023/11/02 18:00:31;;;;;;;12.90;5.65;;;;;;;;;;1046385;28;20585;-73
2023/11/02 18:01:03;;;;;;;29.73;5.38;;;;;;;;;;1043065;28;20025;-73
2023/11/02 18:01:33;;;;;;;18.63;5.63;;;;;;;;;;1046300;28;20063;-73
2023/11/02 18:02:04;;;;;;;5.72;3.25;;;;;;;;;;1045560;28;20031;-73
2023/11/02 18:02:35;;;;;;;11.13;5.05;;;;;;;;;;1042569;28;20029;-73
2023/11/02 18:03:06;;;;;;;32.88;8.57;;;;;;;;;;1047221;28;20013;-73
2023/11/02 18:03:38;;;;;;;14.40;7.88;;;;;;;;;;1047249;28;21187;-73
2023/11/02 18:04:08;;;;;;;23.70;10.50;;;;;;;;;;1047034;28;20032;-73
2023/11/02 18:04:39;;;;;;;11.40;6.57;;;;;;;;;;1047024;28;20016;-73
2023/11/02 18:05:13;;;;;;;8.07;5.22;;;;;;;;;;1046863;28;20034;-73
2023/11/02 18:05:44;;;;;;;6.68;4.05;;;;;;;;;;1044622;28;20075;-72
2023/11/02 18:06:14;;;;;;;6.43;5.88;;;;;;;;;;1044430;28;20111;-72
2023/11/02 18:06:45;;;;;;;5.05;3.95;;;;;;;;;;1044903;28;20036;-72
2023/11/02 18:07:15;;;;;;;6.18;5.47;;;;;;;;;;1046348;28;20032;-72
2023/11/02 18:07:46;;;;;;;38.90;7.07;;;;;;;;;;1047189;28;20029;-72
2023/11/02 18:08:16;;;;;;;3.50;3.20;;;;;;;;;;1045999;28;20045;-72
2023/11/02 18:08:48;;;;;;;12.68;5.60;;;;;;;;;;1046104;28;20435;-73
2023/11/02 18:09:18;;;;;;;13.23;7.72;;;;;;;;;;1046959;28;20025;-73
2023/11/02 18:09:50;;;;;;;12.00;5.75;;;;;;;;;;1046904;28;20577;-73
2023/11/02 18:10:22;;;;;;;4.13;3.65;;;;;;;;;;1046759;28;20072;-73
2023/11/02 18:10:53;;;;;;;7.75;3.78;;;;;;;;;;1045963;28;20055;-73
2023/11/02 18:11:25;;;;;;;12.75;6.50;;;;;;;;;;1046344;28;20021;-73
2023/11/02 18:11:56;;;;;;;8.45;4.35;;;;;;;;;;1046539;28;20031;-73
2023/11/02 18:12:26;;;;;;;24.55;7.50;;;;;;;;;;1046942;28;20025;-73
2023/11/02 18:12:58;;;;;;;18.88;6.50;;;;;;;;;;1047210;28;20023;-73
2023/11/02 18:13:29;;;;;;;7.65;5.22;;;;;;;;;;1046473;28;20104;-73
2023/11/02 18:14:00;;;;;;;12.73;6.53;;;;;;;;;;1046911;28;20024;-73
2023/11/02 18:14:31;;;;;;;6.13;4.43;;;;;;;;;;1046729;28;20025;-73
2023/11/02 18:15:01;;;;;;;5.47;5.00;;;;;;;;;;1046757;28;20082;-73
2023/11/02 18:15:33;;;;;;;4.00;2.55;;;;;;;;;;1045439;28;20119;-73
2023/11/02 18:16:03;;;;;;;7.32;5.97;;;;;;;;;;1046832;28;20025;-73
2023/11/02 18:16:34;;;;;;;7.88;6.18;;;;;;;;;;1046698;28;20697;-73
2023/11/02 18:17:04;;;;;;;19.35;6.10;;;;;;;;;;1042728;28;20029;-73
2023/11/02 18:17:35;;;;;;;14.35;6.38;;;;;;;;;;1046290;28;20079;-73
2023/11/02 18:18:05;;;;;;;7.60;5.57;;;;;;;;;;1046837;28;20036;-73
2023/11/02 18:18:36;;;;;;;11.40;5.40;;;;;;;;;;1042501;28;20025;-73
2023/11/02 18:19:07;;;;;;;15.27;6.68;;;;;;;;;;1042259;28;20128;-73
2023/11/02 18:19:41;;;;;;;5.05;4.55;;;;;;;;;;1040269;28;20028;-73
2023/11/02 18:20:12;;;;;;;10.05;6.95;;;;;;;;;;1040842;28;20025;-73
2023/11/02 18:20:43;;;;;;;4.22;2.85;;;;;;;;;;1044994;28;20029;-73
2023/11/02 18:21:13;;;;;;;12.40;5.88;;;;;;;;;;1046732;28;20112;-73
2023/11/02 18:21:44;;;;;;;5.97;4.07;;;;;;;;;;1046919;28;20079;-73
2023/11/02 18:22:14;;;;;;;18.33;4.18;;;;;;;;;;1046494;28;20017;-73
2023/11/02 18:22:45;;;;;;;11.50;5.00;;;;;;;;;;1042214;28;20188;-73
2023/11/02 18:23:16;;;;;;;14.73;7.38;;;;;;;;;;1042567;28;20025;-73
2023/11/02 18:23:46;;;;;;;22.88;6.00;;;;;;;;;;1040383;28;20049;-73
2023/11/02 18:24:17;;;;;;;5.47;4.88;;;;;;;;;;1044655;28;20055;-73
2023/11/02 18:24:48;;;;;;;8.20;5.47;;;;;;;;;;1046739;28;20024;-73
2023/11/02 18:25:19;;;;;;;14.93;5.10;;;;;;;;;;1046585;28;20013;-73
2023/11/02 18:25:49;;;;;;;12.07;7.28;;;;;;;;;;1047057;28;20141;-73
2023/11/02 18:26:20;;;;;;;9.00;6.72;;;;;;;;;;1046901;28;20017;-73
2023/11/02 18:26:51;;;;;;;20.35;7.63;;;;;;;;;;1047089;28;20043;-73
2023/11/02 18:27:22;;;;;;;43.47;11.65;;;;;;;;;;1046840;28;20482;-73
2023/11/02 18:27:53;;;;;;;22.60;5.68;;;;;;;;;;1047315;28;20115;-73
2023/11/02 18:28:23;;;;;;;19.42;5.65;;;;;;;;;;1046997;28;20023;-73
2023/11/02 18:28:54;;;;;;;26.73;8.73;;;;;;;;;;1046695;28;20017;-73
2023/11/02 18:29:25;;;;;;;11.27;6.43;;;;;;;;;;1046530;28;20082;-73
2023/11/02 18:29:56;;;;;;;10.10;5.15;;;;;;;;;;1046721;28;20143;-73
2023/11/02 18:30:26;;;;;;;27.90;8.65;;;;;;;;;;1046675;28;20392;-73
2023/11/02 18:30:57;;;;;;;5.63;5.10;;;;;;;;;;1047048;28;20115;-73
2023/11/02 18:31:27;;;;;;;8.50;5.93;;;;;;;;;;1046283;28;20016;-73
2023/11/02 18:31:58;;;;;;;17.05;9.68;;;;;;;;;;1047105;28;20025;-73
2023/11/02 18:32:29;;;;;;;14.98;6.70;;;;;;;;;;1046590;28;20024;-73
2023/11/02 18:32:59;;;;;;;6.25;4.25;;;;;;;;;;1044839;28;20695;-73
2023/11/02 18:33:31;;;;;;;13.57;7.38;;;;;;;;;;1043177;28;20110;-73
2023/11/02 18:34:01;;;;;;;9.45;7.68;;;;;;;;;;1044147;28;20048;-73
2023/11/02 18:34:32;;;;;;;11.95;7.57;;;;;;;;;;1042844;28;20488;-73
2023/11/02 18:35:04;;;;;;;12.02;6.05;;;;;;;;;;1044345;28;20025;-73
2023/11/02 18:35:34;;;;;;;32.53;7.95;;;;;;;;;;1044215;28;20028;-73
2023/11/02 18:36:06;;;;;;;17.65;6.25;;;;;;;;;;1043987;28;20009;-73
2023/11/02 18:36:38;;;;;;;6.13;5.00;;;;;;;;;;1043918;28;20017;-73
2023/11/02 18:37:09;;;;;;;14.85;4.60;;;;;;;;;;1043959;28;20420;-73
2023/11/02 18:37:39;;;;;;;5.78;4.85;;;;;;;;;;1043929;28;20029;-73
2023/11/02 18:38:11;;;;;;;5.30;4.75;;;;;;;;;;1044284;28;20523;-73
2023/11/02 18:38:42;;;;;;;26.08;7.25;;;;;;;;;;1043799;28;20460;-72
2023/11/02 18:39:13;;;;;;;14.48;6.68;;;;;;;;;;1044009;28;20020;-72
2023/11/02 18:39:43;;;;;;;7.43;5.40;;;;;;;;;;1044219;28;20134;-72
2023/11/02 18:40:14;;;;;;;44.78;8.38;;;;;;;;;;1044100;28;20017;-72
2023/11/02 18:40:47;;;;;;;7.72;5.82;;;;;;;;;;1043835;28;20384;-72
2023/11/02 18:41:20;;;;;;;10.25;6.55;;;;;;;;;;1042637;28;20501;-72
2023/11/02 18:41:51;;;;;;;7.57;5.85;;;;;;;;;;1044100;28;20025;-72
2023/11/02 18:42:22;;;;;;;10.50;4.47;;;;;;;;;;1043837;28;20029;-73
2023/11/02 18:42:53;;;;;;;12.15;5.28;;;;;;;;;;1044320;28;20536;-73
2023/11/02 18:43:25;;;;;;;11.57;5.10;;;;;;;;;;1043675;28;20048;-73
2023/11/02 18:43:56;;;;;;;29.30;10.00;;;;;;;;;;1044066;28;20024;-73
2023/11/02 18:44:26;;;;;;;19.90;5.75;;;;;;;;;;1043909;28;20020;-73
2023/11/02 18:44:57;;;;;;;34.13;9.90;;;;;;;;;;1043995;28;20029;-73
2023/11/02 18:45:27;;;;;;;20.20;10.60;;;;;;;;;;1044003;28;20472;-73
2023/11/02 18:45:58;;;;;;;24.27;5.55;;;;;;;;;;1044380;28;20021;-73
2023/11/02 18:46:29;;;;;;;30.88;8.13;;;;;;;;;;1043786;28;20549;-73
2023/11/02 18:47:06;;;;;;;10.27;4.38;;;;;;;;;;1041861;28;20543;-73
2023/11/02 18:47:38;;;;;;;3.58;3.30;;;;;;;;;;1041051;28;20436;-73
2023/11/02 18:48:08;;;;;;;7.57;5.35;;;;;;;;;;1040407;28;20017;-73
2023/11/02 18:48:40;;;;;;;20.20;6.88;;;;;;;;;;1041734;28;20452;-73
2023/11/02 18:49:14;;;;;;;10.35;5.40;;;;;;;;;;1042887;28;20395;-73
2023/11/02 18:49:44;;;;;;;12.60;4.40;;;;;;;;;;1042743;28;20024;-73
2023/11/02 18:50:15;;;;;;;9.50;5.07;;;;;;;;;;1043988;28;20358;-73
2023/11/02 18:50:46;;;;;;;9.98;6.57;;;;;;;;;;1043890;28;20083;-73
2023/11/02 18:51:17;;;;;;;10.25;6.35;;;;;;;;;;1041789;28;20087;-73
2023/11/02 18:51:48;;;;;;;7.32;5.38;;;;;;;;;;1043904;28;20028;-73
2023/11/02 18:52:19;;;;;;;3.05;2.60;;;;;;;;;;1044287;28;20880;-73
2023/11/02 18:52:49;;;;;;;10.65;7.28;;;;;;;;;;1044241;28;20029;-73
2023/11/02 18:53:21;;;;;;;30.52;8.82;;;;;;;;;;1044095;28;20029;-73
2023/11/02 18:53:52;;;;;;;14.85;7.80;;;;;;;;;;1044336;28;20048;-73
2023/11/02 18:54:23;;;;;;;37.33;6.03;;;;;;;;;;1043768;28;20024;-73
2023/11/02 18:54:55;;;;;;;11.68;6.75;;;;;;;;;;1040408;28;20074;-73
2023/11/02 18:55:28;;;;;;;9.52;6.00;;;;;;;;;;1043520;28;20025;-73
2023/11/02 18:55:59;;;;;;;27.48;8.45;;;;;;;;;;1042268;28;20025;-73
2023/11/02 18:56:30;;;;;;;15.55;6.28;;;;;;;;;;1041709;28;20028;-73
2023/11/02 18:57:01;;;;;;;8.18;6.57;;;;;;;;;;1042701;28;20108;-73
2023/11/02 18:57:31;;;;;;;8.05;5.78;;;;;;;;;;1040549;28;20033;-73
2023/11/02 18:58:02;;;;;;;9.35;7.50;;;;;;;;;;1034855;28;20505;-73
2023/11/02 18:58:32;;;;;;;32.42;5.55;;;;;;;;;;1039730;28;20025;-73
2023/11/02 18:59:03;;;;;;;10.38;4.00;;;;;;;;;;1039855;28;20028;-73
2023/11/02 18:59:33;;;;;;;15.40;6.95;;;;;;;;;;1040130;28;20464;-73
2023/11/02 19:00:07;;;;;;;5.63;4.07;;;;;;;;;;1041052;28;20479;-73
2023/11/02 19:00:40;;;;;;;30.63;10.95;;;;;;;;;;1041008;28;20051;-73
2023/11/02 19:01:18;;;;;;;17.10;5.95;;;;;;;;;;1041829;28;20029;-73
2023/11/02 19:01:52;;;;;;;13.98;5.10;;;;;;;;;;1044129;28;20433;-73
2023/11/02 19:02:23;;;;;;;8.25;6.97;;;;;;;;;;1044194;28;20021;-73
2023/11/02 19:02:54;;;;;;;8.30;5.82;;;;;;;;;;1044383;28;20029;-73
2023/11/02 19:03:26;;;;;;;24.13;8.77;;;;;;;;;;1043554;28;20021;-73
2023/11/02 19:03:56;;;;;;;3.97;3.67;;;;;;;;;;1039850;28;20667;-73
2023/11/02 19:04:31;;;;;;;7.40;4.65;;;;;;;;;;1035502;28;20555;-73
2023/11/02 19:05:05;;;;;;;8.15;6.95;;;;;;;;;;1036272;28;20408;-73
2023/11/02 19:05:35;;;;;;;12.20;6.22;;;;;;;;;;1040798;28;20424;-73
2023/11/02 19:06:06;;;;;;;9.68;4.82;;;;;;;;;;1044147;28;20024;-73
2023/11/02 19:06:37;;;;;;;5.20;4.57;;;;;;;;;;1044124;28;20078;-73
2023/11/02 19:07:08;;;;;;;14.10;5.30;;;;;;;;;;1044126;28;20033;-73
2023/11/02 19:07:40;;;;;;;10.38;6.78;;;;;;;;;;1044157;28;20389;-73
2023/11/02 19:08:12;;;;;;;5.82;4.47;;;;;;;;;;1043650;28;20476;-73
2023/11/02 19:08:44;;;;;;;12.18;5.72;;;;;;;;;;1043556;28;20110;-73
2023/11/02 19:09:14;;;;;;;6.78;6.13;;;;;;;;;;1041662;28;20021;-73
2023/11/02 19:09:45;;;;;;;13.90;8.30;;;;;;;;;;1041773;28;20107;-73
2023/11/02 19:10:16;;;;;;;9.93;6.28;;;;;;;;;;1041953;28;20466;-73
2023/11/02 19:10:47;;;;;;;9.63;4.22;;;;;;;;;;1043858;28;20044;-73
2023/11/02 19:11:18;;;;;;;11.25;5.97;;;;;;;;;;1043894;28;20380;-73
2023/11/02 19:11:49;;;;;;;10.38;5.78;;;;;;;;;;1044275;28;20476;-73
2023/11/02 19:12:20;;;;;;;17.83;6.22;;;;;;;;;;1043975;28;20024;-73
2023/11/02 19:12:51;;;;;;;10.00;3.53;;;;;;;;;;1044175;28;20021;-73
2023/11/02 19:13:22;;;;;;;33.08;8.75;;;;;;;;;;1043949;28;20033;-73
2023/11/02 19:13:53;;;;;;;12.98;6.93;;;;;;;;;;1044206;28;20385;-73
2023/11/02 19:14:23;;;;;;;10.55;3.58;;;;;;;;;;1044180;28;20112;-73
2023/11/02 19:14:54;;;;;;;7.93;4.72;;;;;;;;;;1041293;28;20366;-73
2023/11/02 19:15:29;;;;;;;7.35;5.45;;;;;;;;;;1042253;28;20110;-73
2023/11/02 19:16:04;;;;;;;4.25;3.90;;;;;;;;;;1044249;28;20072;-73
2023/11/02 19:16:34;;;;;;;3.63;3.22;;;;;;;;;;1043920;28;20040;-73
2023/11/02 19:17:05;;;;;;;23.60;8.60;;;;;;;;;;1043624;28;20013;-73
2023/11/02 19:17:36;;;;;;;13.98;6.75;;;;;;;;;;1042773;28;20035;-73
2023/11/02 19:18:07;;;;;;;4.07;3.55;;;;;;;;;;1044044;28;20086;-73
2023/11/02 19:18:37;;;;;;;16.92;8.27;;;;;;;;;;1043615;28;20063;-73
2023/11/02 19:19:08;;;;;;;39.42;7.72;;;;;;;;;;1044104;28;20032;-73
2023/11/02 19:19:41;;;;;;;6.50;4.57;;;;;;;;;;1044134;28;20045;-73
2023/11/02 19:20:11;;;;;;;10.55;5.45;;;;;;;;;;1043573;28;20476;-73
2023/11/02 19:20:42;;;;;;;20.75;7.10;;;;;;;;;;1043978;28;20051;-73
2023/11/02 19:21:14;;;;;;;12.68;6.68;;;;;;;;;;1043531;28;20087;-73
2023/11/02 19:21:45;;;;;;;11.48;5.40;;;;;;;;;;1043605;28;20033;-73
2023/11/02 19:22:17;;;;;;;12.43;5.97;;;;;;;;;;1043677;28;20028;-73
2023/11/02 19:22:47;;;;;;;12.38;6.55;;;;;;;;;;1043715;28;20451;-73
2023/11/02 19:23:18;;;;;;;8.45;4.90;;;;;;;;;;1043969;28;20055;-73
2023/11/02 19:23:49;;;;;;;6.45;3.70;;;;;;;;;;1044282;28;20120;-73
2023/11/02 19:24:24;;;;;;;8.93;5.90;;;;;;;;;;1044147;28;20032;-73
2023/11/02 19:24:56;;;;;;;11.27;7.22;;;;;;;;;;1044170;28;20021;-73
2023/11/02 19:25:26;;;;;;;42.20;7.25;;;;;;;;;;1042987;28;20081;-73
2023/11/02 19:25:59;;;;;;;10.82;7.25;;;;;;;;;;1043393;28;20028;-73
2023/11/02 19:26:29;;;;;;;16.65;7.60;;;;;;;;;;1043667;28;20025;-73
2023/11/02 19:27:00;;;;;;;5.65;5.13;;;;;;;;;;1041232;28;20032;-73
2023/11/02 19:27:31;;;;;;;3.58;2.97;;;;;;;;;;1043303;28;20032;-73
2023/11/02 19:28:02;;;;;;;8.15;5.40;;;;;;;;;;1041772;28;20108;-73
2023/11/02 19:28:33;;;;;;;24.10;6.55;;;;;;;;;;1041708;28;20452;-73
2023/11/02 19:29:04;;;;;;;14.20;7.10;;;;;;;;;;1038529;28;20286;-73
2023/11/02 19:29:37;;;;;;;9.77;5.97;;;;;;;;;;1039630;28;20036;-73
2023/11/02 19:30:08;;;;;;;8.45;5.22;;;;;;;;;;1043998;28;20043;-73
2023/11/02 19:30:38;;;;;;;15.48;8.18;;;;;;;;;;1040353;28;20028;-73
2023/11/02 19:31:10;;;;;;;19.02;8.18;;;;;;;;;;1043026;28;20031;-73
2023/11/02 19:31:43;;;;;;;13.05;8.07;;;;;;;;;;1043730;28;20532;-73
2023/11/02 19:32:14;;;;;;;10.05;5.88;;;;;;;;;;1043653;28;20062;-73
2023/11/02 19:32:44;;;;;;;19.83;9.95;;;;;;;;;;1043511;28;20070;-73
2023/11/02 19:33:15;;;;;;;20.00;8.90;;;;;;;;;;1043709;28;20035;-73
2023/11/02 19:33:46;;;;;;;10.18;6.45;;;;;;;;;;1043862;28;20029;-73
2023/11/02 19:34:17;;;;;;;16.17;9.45;;;;;;;;;;1044200;28;20789;-73
2023/11/02 19:34:49;;;;;;;11.40;7.72;;;;;;;;;;1042830;28;20028;-73
2023/11/02 19:35:20;;;;;;;14.15;6.20;;;;;;;;;;1042989;28;20025;-73
2023/11/02 19:35:50;;;;;;;10.07;7.00;;;;;;;;;;1044223;28;20033;-73
2023/11/02 19:36:21;;;;;;;6.55;3.97;;;;;;;;;;1044071;28;20032;-73
2023/11/02 19:36:54;;;;;;;18.73;9.88;;;;;;;;;;1044098;28;20027;-73
2023/11/02 19:37:25;;;;;;;15.40;9.90;;;;;;;;;;1043846;28;20107;-73
2023/11/02 19:37:55;;;;;;;11.65;8.40;;;;;;;;;;1044111;28;20472;-73
2023/11/02 19:38:26;;;;;;;26.65;11.60;;;;;;;;;;1044020;28;20475;-73
2023/11/02 19:38:57;;;;;;;9.00;6.90;;;;;;;;;;1043583;28;20473;-73
2023/11/02 19:39:28;;;;;;;14.07;9.35;;;;;;;;;;1043390;28;20071;-73
2023/11/02 19:40:00;;;;;;;12.73;8.40;;;;;;;;;;1041875;28;20052;-73
2023/11/02 19:40:31;;;;;;;8.10;6.95;;;;;;;;;;1041574;28;20029;-73
2023/11/02 19:41:03;;;;;;;8.40;5.95;;;;;;;;;;1041631;28;20801;-73
2023/11/02 19:41:34;;;;;;;14.23;9.38;;;;;;;;;;1041148;28;20447;-73
2023/11/02 19:42:05;;;;;;;10.70;6.40;;;;;;;;;;1040085;28;20489;-73
2023/11/02 19:42:35;;;;;;;14.48;7.28;;;;;;;;;;1041346;28;20128;-73
2023/11/02 19:43:06;;;;;;;10.77;7.13;;;;;;;;;;1041962;28;20608;-73
2023/11/02 19:43:36;;;;;;;7.72;6.78;;;;;;;;;;1043617;28;20419;-73
2023/11/02 19:44:07;;;;;;;13.50;5.80;;;;;;;;;;1043903;28;20025;-73
2023/11/02 19:44:38;;;;;;;6.75;6.13;;;;;;;;;;1043573;28;20075;-73
2023/11/02 19:45:09;;;;;;;18.60;11.43;;;;;;;;;;1043446;28;20033;-73
2023/11/02 19:45:39;;;;;;;9.05;5.80;;;;;;;;;;1043514;28;20021;-73
2023/11/02 19:46:10;;;;;;;10.23;9.07;;;;;;;;;;1043849;28;20392;-73
2023/11/02 19:46:43;;;;;;;18.40;8.85;;;;;;;;;;1043429;28;20459;-73
2023/11/02 19:47:14;;;;;;;13.07;6.63;;;;;;;;;;1043383;28;20020;-73
2023/11/02 19:47:44;;;;;;;8.15;7.22;;;;;;;;;;1039485;28;20013;-73
2023/11/02 19:48:15;;;;;;;24.67;11.43;;;;;;;;;;1039719;28;20056;-73
2023/11/02 19:48:45;;;;;;;10.73;7.05;;;;;;;;;;1039371;28;20025;-73
2023/11/02 19:49:16;;;;;;;9.57;5.22;;;;;;;;;;1043644;28;20029;-73
2023/11/02 19:49:47;;;;;;;25.15;7.25;;;;;;;;;;1044069;28;20045;-73
2023/11/02 19:50:18;;;;;;;5.90;5.40;;;;;;;;;;1043978;28;20036;-73
2023/11/02 19:50:51;;;;;;;10.00;8.63;;;;;;;;;;1044047;28;20389;-73
2023/11/02 19:51:22;;;;;;;13.82;7.03;;;;;;;;;;1043844;28;20021;-73
2023/11/02 19:51:52;;;;;;;29.13;10.68;;;;;;;;;;1044153;28;20025;-73
2023/11/02 19:52:23;;;;;;;13.15;7.40;;;;;;;;;;1044033;28;20033;-73
2023/11/02 19:52:53;;;;;;;10.10;6.70;;;;;;;;;;1043596;28;20025;-73
2023/11/02 19:53:24;;;;;;;21.17;10.60;;;;;;;;;;1043560;28;20468;-73
2023/11/02 19:53:55;;;;;;;12.00;7.07;;;;;;;;;;1041790;28;20024;-73
2023/11/02 19:54:26;;;;;;;14.45;7.03;;;;;;;;;;1038831;28;20025;-73
2023/11/02 19:54:57;;;;;;;25.75;6.45;;;;;;;;;;1038933;28;20473;-73
2023/11/02 19:55:27;;;;;;;14.00;6.07;;;;;;;;;;1039486;28;20029;-73
2023/11/02 19:55:58;;;;;;;17.17;6.63;;;;;;;;;;1043776;28;20439;-73
2023/11/02 19:56:28;;;;;;;10.35;7.55;;;;;;;;;;1043912;28;20381;-73
2023/11/02 19:56:59;;;;;;;10.48;5.72;;;;;;;;;;1044069;28;20107;-73
2023/11/02 19:57:29;;;;;;;4.40;4.00;;;;;;;;;;1041775;28;20112;-73
2023/11/02 19:58:00;;;;;;;7.15;4.55;;;;;;;;;;1043688;28;20134;-73
2023/11/02 19:58:30;;;;;;;22.83;6.93;;;;;;;;;;1043673;28;20069;-73
2023/11/02 19:59:01;;;;;;;8.43;7.10;;;;;;;;;;1043449;28;20430;-73
2023/11/02 19:59:31;;;;;;;5.85;4.85;;;;;;;;;;1041680;28;20467;-73
2023/11/02 20:00:02;;;;;;;15.65;6.97;;;;;;;;;;1043872;28;20024;-73
2023/11/02 20:00:33;;;;;;;17.55;10.13;;;;;;;;;;1042505;28;20024;-73
2023/11/02 20:01:04;;;;;;;23.70;8.57;;;;;;;;;;1043598;28;20124;-73
2023/11/02 20:01:35;;;;;;;16.27;9.73;;;;;;;;;;1043704;28;20021;-73
2023/11/02 20:02:05;;;;;;;26.05;8.23;;;;;;;;;;1044177;28;20025;-73
2023/11/02 20:02:36;;;;;;;5.50;3.55;;;;;;;;;;1043975;28;20018;-73
2023/11/02 20:03:07;;;;;;;17.35;8.38;;;;;;;;;;1043870;28;20024;-73
2023/11/02 20:03:39;;;;;;;9.63;8.02;;;;;;;;;;1043433;28;20767;-73
2023/11/02 20:04:10;;;;;;;9.05;6.82;;;;;;;;;;1041516;28;20501;-73
2023/11/02 20:04:43;;;;;;;6.25;5.35;;;;;;;;;;1041530;28;20033;-73
2023/11/02 20:05:13;;;;;;;15.45;6.95;;;;;;;;;;1042012;28;20104;-74
2023/11/02 20:05:44;;;;;;;15.00;8.43;;;;;;;;;;1043727;28;20107;-73
2023/11/02 20:06:15;;;;;;;13.23;6.88;;;;;;;;;;1043545;28;20467;-73
2023/11/02 20:06:45;;;;;;;19.67;8.10;;;;;;;;;;1043476;28;20054;-73
2023/11/02 20:07:16;;;;;;;23.27;4.30;;;;;;;;;;1041421;28;20468;-73
2023/11/02 20:07:46;;;;;;;9.63;5.63;;;;;;;;;;1041649;28;20025;-73
2023/11/02 20:08:17;;;;;;;18.77;7.88;;;;;;;;;;1043637;28;20147;-73
2023/11/02 20:08:47;;;;;;;42.25;9.23;;;;;;;;;;1043620;28;20047;-73
2023/11/02 20:09:18;;;;;;;13.35;7.50;;;;;;;;;;1042728;28;20025;-73
2023/11/02 20:09:49;;;;;;;12.40;7.13;;;;;;;;;;1043585;28;20465;-73
2023/11/02 20:10:19;;;;;;;21.35;9.48;;;;;;;;;;1043642;28;20115;-73
2023/11/02 20:10:51;;;;;;;17.30;9.88;;;;;;;;;;1041564;28;20412;-73
2023/11/02 20:11:22;;;;;;;6.70;5.90;;;;;;;;;;1041632;28;20073;-73
2023/11/02 20:11:52;;;;;;;13.50;9.90;;;;;;;;;;1043758;28;20107;-73
2023/11/02 20:12:23;;;;;;;19.88;9.82;;;;;;;;;;1043496;28;20028;-73
2023/11/02 20:12:53;;;;;;;8.60;5.88;;;;;;;;;;1043928;28;20055;-73
2023/11/02 20:13:25;;;;;;;13.13;6.32;;;;;;;;;;1043748;28;20021;-73
2023/11/02 20:13:56;;;;;;;14.05;6.60;;;;;;;;;;1044075;28;20171;-73
2023/11/02 20:14:27;;;;;;;18.38;8.60;;;;;;;;;;1043099;28;20024;-73
2023/11/02 20:14:58;;;;;;;12.57;6.22;;;;;;;;;;1043672;28;20020;-73
2023/11/02 20:15:28;;;;;;;12.05;8.00;;;;;;;;;;1040271;28;20028;-73
2023/11/02 20:15:59;;;;;;;18.58;6.00;;;;;;;;;;1041537;28;20017;-73
2023/11/02 20:16:29;;;;;;;14.18;7.80;;;;;;;;;;1043458;28;20024;-73
2023/11/02 20:17:00;;;;;;;19.92;10.48;;;;;;;;;;1043663;28;20032;-73
2023/11/02 20:17:30;;;;;;;16.05;8.13;;;;;;;;;;1042564;28;20025;-73
2023/11/02 20:18:03;;;;;;;10.18;6.63;;;;;;;;;;1043815;28;20086;-73
2023/11/02 20:18:34;;;;;;;20.95;10.77;;;;;;;;;;1042545;28;20028;-73
2023/11/02 20:19:05;;;;;;;14.35;6.72;;;;;;;;;;1043579;28;20104;-73
2023/11/02 20:19:35;;;;;;;7.28;6.38;;;;;;;;;;1041823;28;20033;-73
2023/11/02 20:20:06;;;;;;;15.77;6.13;;;;;;;;;;1044119;28;20481;-73
2023/11/02 20:20:37;;;;;;;6.15;5.45;;;;;;;;;;1043839;28;20021;-73
2023/11/02 20:21:07;;;;;;;7.57;5.68;;;;;;;;;;1043818;28;20021;-73
2023/11/02 20:21:38;;;;;;;6.57;4.90;;;;;;;;;;1043671;28;20031;-73
2023/11/02 20:22:10;;;;;;;43.53;7.45;;;;;;;;;;1043685;28;20044;-73
2023/11/02 20:22:40;;;;;;;13.43;5.80;;;;;;;;;;1043463;28;20017;-73
2023/11/02 20:23:11;;;;;;;9.32;5.85;;;;;;;;;;1037616;28;20025;-73
2023/11/02 20:23:41;;;;;;;10.95;5.53;;;;;;;;;;1039129;28;20017;-73
2023/11/02 20:24:12;;;;;;;14.07;6.15;;;;;;;;;;1043656;28;20024;-73
2023/11/02 20:24:43;;;;;;;26.73;8.82;;;;;;;;;;1039260;28;20025;-73
2023/11/02 20:25:14;;;;;;;14.15;6.20;;;;;;;;;;1043495;28;20025;-73
2023/11/02 20:25:45;;;;;;;18.58;9.20;;;;;;;;;;1043440;28;20453;-73
2023/11/02 20:26:16;;;;;;;18.02;5.82;;;;;;;;;;1043355;28;20449;-73